createdAt,value
2018-01-22T00:00:07.440Z,959.33
2018-01-22T00:15:05.092Z,958.47
2018-01-22T00:30:05.166Z,957.78
2018-01-22T00:45:05.540Z,957.13
2018-01-22T01:00:05.320Z,956.62
2018-01-22T01:15:04.834Z,956.49
2018-01-22T01:30:07.773Z,956.22
2018-01-22T01:45:04.768Z,956.06
2018-01-22T02:00:04.847Z,955.96
2018-01-22T02:15:06.465Z,955.42
2018-01-22T02:30:20.682Z,955.02
2018-01-22T02:45:06.349Z,954.86
2018-01-22T03:00:04.939Z,954.54
2018-01-22T03:15:04.388Z,954.56
2018-01-22T03:30:05.485Z,954.43
2018-01-22T03:45:04.905Z,960.85
2018-01-22T04:00:08.317Z,960.14
2018-01-22T04:15:05.816Z,959.82
2018-01-22T04:30:19.988Z,959.6
2018-01-22T04:45:05.533Z,959.9
2018-01-22T05:00:04.920Z,960.04
2018-01-22T05:15:04.785Z,959.87
2018-01-22T05:30:04.574Z,960.25
2018-01-22T05:45:04.444Z,960.17
2018-01-22T06:00:04.943Z,960.39
2018-01-22T06:15:04.800Z,960.14
2018-01-22T06:30:04.383Z,960.09
2018-01-22T06:45:04.815Z,960.01
2018-01-22T07:00:04.652Z,959.96
2018-01-22T07:15:04.481Z,959.82
2018-01-22T07:30:05.103Z,959.39
2018-01-22T07:45:04.495Z,958.9
2018-01-22T08:00:04.377Z,958.79
2018-01-22T08:15:05.286Z,958.85
2018-01-22T08:30:04.444Z,958.63
2018-01-22T08:45:04.348Z,958.58
2018-01-22T09:00:05.229Z,958.47
2018-01-22T09:15:05.112Z,958.63
2018-01-22T09:30:06.251Z,958.58
2018-01-22T09:45:05.133Z,958.66
2018-01-22T10:00:05.002Z,959.5
2018-01-22T10:15:04.849Z,958.63
2018-01-22T10:30:04.895Z,958.58
2018-01-22T10:45:04.964Z,958.26
2018-01-22T11:00:04.373Z,957.9
2018-01-22T11:15:04.898Z,957.47
2018-01-22T11:30:04.478Z,957.01
2018-01-22T11:45:04.933Z,956.55
2018-01-22T12:00:04.843Z,956.04
2018-01-22T12:15:05.263Z,955.31
2018-01-22T12:30:04.364Z,955.02
2018-01-22T12:45:05.216Z,954.5
2018-01-22T13:00:04.586Z,954.61
2018-01-22T13:15:04.522Z,955.15
2018-01-22T13:30:04.632Z,955.12
2018-01-22T13:45:04.652Z,954.83
2018-01-22T14:00:05.060Z,954.77
2018-01-22T14:15:04.468Z,954.72
2018-01-22T14:30:04.556Z,955.12
2018-01-22T14:45:04.967Z,955.39
2018-01-22T15:00:05.878Z,955.39
2018-01-22T15:15:04.854Z,955.26
2018-01-22T15:30:04.487Z,955.56
2018-01-22T15:45:04.423Z,956.26
2018-01-22T16:00:04.855Z,955.96
2018-01-22T16:15:04.309Z,955.91
2018-01-22T16:30:04.838Z,955.91
2018-01-22T16:45:05.228Z,955.85
2018-01-22T17:00:05.099Z,955.99
2018-01-22T17:15:04.479Z,956.2
2018-01-22T17:30:04.603Z,956.34
2018-01-22T17:45:05.457Z,956.53
2018-01-22T18:00:05.935Z,956.72
2018-01-22T18:15:05.055Z,956.85
2018-01-22T18:30:06.579Z,957.28
2018-01-22T18:45:05.169Z,957.31
2018-01-22T19:00:05.047Z,957.85
2018-01-22T19:15:04.946Z,957.96
2018-01-22T19:30:04.497Z,958.71
2018-01-22T19:45:05.000Z,959.5
2018-01-22T20:00:04.873Z,959.9
2018-01-22T20:15:04.773Z,960.22
2018-01-22T20:30:04.836Z,960.58
2018-01-22T20:45:04.726Z,960.9
2018-01-22T21:00:05.097Z,961.47
2018-01-22T21:15:05.586Z,961.63
2018-01-22T21:30:05.405Z,962.25
2018-01-22T21:45:05.902Z,962.25
2018-01-22T22:00:05.451Z,962.84
2018-01-22T22:15:05.305Z,963.36
2018-01-22T22:30:04.518Z,963.46
2018-01-22T22:45:06.185Z,964.17
2018-01-22T23:00:04.583Z,964.3
2018-01-22T23:15:04.690Z,964.41
2018-01-22T23:30:04.807Z,964.68
2018-01-22T23:45:06.126Z,964.87
